LEASGCRR

Guest
Details From LEAS - Asturias
To GCRR - Lanzarote
Flight Number -
Tags Generated
Created
Modified
Stats Distance 951 nm / 1,761 km
Max Altitude 0 ft / 0 m
Waypoints 5
Social Downloads 0
Likes 0
Share VATSIM

Download

Looking for another format? Having issues loading an existing format? Contact us
Advertisement - Login to hide

Notes

Generated

Route

LEAS POBOD SONAP LZR GCRR

ID Type Via Altitude Latitude Longitude Leg Dist Tot Dist Heading (true) Name
O LEAS APT - 0 ft / 0 m 43.56657˚ -6.04764˚ - 0 nm - -
POBOD FIX - 0 ft / 0 m 39.64111˚ -8.26639˚ 255 nm 255 nm 204° / 202° -
SONAP FIX - 0 ft / 0 m 36.50000˚ -10.00000˚ 205 nm 461 nm 204° / 203° -
LZR VOR - 0 ft / 0 m 29.16600˚ -13.51073˚ 474 nm 936 nm 203° / 201° LANZAROTE VOR-DME
O GCRR APT - 0 ft / 0 m 28.93584˚ -13.61080˚ 14 nm 951 nm 201° / 201° -

Altitude Profile

Advertisement - Login to hide

Weather


0- 5 10 15 20 25 30 35+ Temperature / ° C

Clouds and Precipitation
Forecast for 2017-12-16 06:00 UTC. Updated 2 hours ago

Ground ~20,000 ft ~40,000 ft Winds

LEAS

Details ICAO LEAS (OVD)
Name Asturias
Region Spain
Timezone Europe/Madrid (UTC+1.0)
Stats Elevation 416 ft / 127 m (AMSL)
Location 43.563496° -6.034670°
Runways 1
Magnetic Variation 1.628° W

METAR

LEAS 160700Z 24003KT 210V280 9999 FEW035 SCT050 06/04 Q1023 NOSIG

Decode

TAF

TAF LEAS 160200Z 1603/1703 27008KT 9000 SCT025 BKN050 TX11/1614Z TN06/1703Z TEMPO 1603/1611 RA PROB40 TEMPO 1603/1606 3000 SHRA SCT030TCU PROB30 TEMPO 1611/1621 RA PROB30 TEMPO 1603/1615 30015G25KT

Decode

Departure Runways

ID Width Length Bearing (true) Bearing (mag) Surface Threshold Offset Overrun Length
11 148 ft / 45 m 7,216 ft / 2,200 m 108.09° 109.72° Asphalt 0 ft / 0 m 164 ft / 50 m
29 148 ft / 45 m 7,216 ft / 2,200 m 288.10° 289.73° Asphalt 0 ft / 0 m 164 ft / 50 m

GCRR

Details ICAO GCRR (ACE)
Name Lanzarote
Region Canary Islands
Timezone Atlantic/Canary (UTC+0.0)
Stats Elevation 0 ft / 0 m (AMSL)
Location 28.945466° -13.605223°
Runways 1
Magnetic Variation 3.976° W

METAR

GCRR 160700Z VRB02KT 9999 FEW020 19/16 Q1021

Decode

TAF

TAF GCRR 160200Z 1603/1703 34005KT 9999 FEW025 TX22/1614Z TN15/1606Z BECMG 1610/1612 03015KT BECMG 1619/1620 34005KT

Decode

Destination Runways

ID Width Length Bearing (true) Bearing (mag) Surface Threshold Offset Overrun Length
03 148 ft / 45 m 7,893 ft / 2,406 m 26.90° 30.88° Asphalt 197 ft / 60 m 197 ft / 60 m
21 148 ft / 45 m 7,893 ft / 2,406 m 206.91° 210.89° Asphalt 197 ft / 60 m 197 ft / 60 m

Approach Navaids

Runway Type Ident Frequency Range Bearing (true) Bearing (mag) Slope Elevation
03 Localiser IRR 109.10 MHz 18 nm / 33 km 26.90° 30.88° - 47 ft / 14 m (AMSL)
03 Glidescope IRR 109.10 MHz 10 nm / 19 km 26.90° 30.88° 3.00° 0 ft / 0 m (AMSL)
03 DME IRR 109.10 MHz 18 nm / 33 km - - - 36 ft / 11 m (AMSL)

Popular Alternatives